Time;durP1;ratioP1;P1;durP2;ratioP2;P2;SDS_P1;SDS_P2;PMS_P1;PMS_P2;Temp;Humidity;BMP_temperature;BMP_pressure;BME280_temperature;BME280_humidity;BME280_pressure;Samples;Min_cycle;Max_cycle;Signal;HPM_P1;HPM_P2
2023/03/22 00:00:48;;;;;;;0.10;0.10;;;8.30;99.90;;;;;;5085679;28;20754;-86
2023/03/22 00:03:13;;;;;;;0.80;0.40;;;8.30;99.90;;;;;;5073527;28;20051;-85
2023/03/22 00:05:39;;;;;;;0.30;0.30;;;8.20;99.90;;;;;;5099062;28;20027;-86
2023/03/22 00:08:06;;;;;;;0.30;0.30;;;8.20;99.90;;;;;;5103567;28;20023;-86
2023/03/22 00:10:32;;;;;;;0.15;0.15;;;8.20;99.90;;;;;;5093502;28;20063;-85
2023/03/22 00:12:58;;;;;;;1.65;1.55;;;8.10;99.90;;;;;;5095783;28;20864;-85
2023/03/22 00:15:24;;;;;;;0.20;0.20;;;8.00;99.90;;;;;;5075798;28;20043;-85
2023/03/22 00:17:50;;;;;;;2.08;0.40;;;8.00;99.90;;;;;;5082236;28;20031;-86
2023/03/22 00:20:16;;;;;;;0.13;0.13;;;8.00;99.90;;;;;;5102166;28;20273;-85
2023/03/22 00:22:42;;;;;;;0.10;0.10;;;8.00;99.90;;;;;;5095723;28;20860;-85
2023/03/22 00:25:09;;;;;;;0.20;0.20;;;8.10;99.90;;;;;;5102943;28;20028;-85
2023/03/22 00:27:35;;;;;;;0.82;0.70;;;8.00;99.90;;;;;;5096002;28;20291;-85
2023/03/22 00:30:01;;;;;;;0.20;0.20;;;8.10;99.90;;;;;;5098243;28;20044;-86
2023/03/22 00:32:27;;;;;;;0.10;0.10;;;8.10;99.90;;;;;;5094879;28;20023;-85
2023/03/22 00:34:53;;;;;;;0.13;0.13;;;8.10;99.90;;;;;;5099483;28;20051;-85
2023/03/22 00:37:18;;;;;;;0.10;0.10;;;8.10;99.90;;;;;;5085264;28;20024;-85
2023/03/22 00:39:44;;;;;;;0.15;0.15;;;8.10;99.90;;;;;;5091313;28;20104;-87
2023/03/22 00:42:10;;;;;;;0.20;0.20;;;8.10;99.90;;;;;;5077862;28;20024;-86
2023/03/22 00:44:36;;;;;;;0.30;0.30;;;8.00;99.90;;;;;;5088220;28;20032;-86
2023/03/22 00:47:02;;;;;;;2.10;0.63;;;8.00;99.90;;;;;;5091723;28;20024;-86
2023/03/22 00:49:30;;;;;;;0.20;0.20;;;8.00;99.90;;;;;;5100550;28;20035;-87
2023/03/22 00:51:55;;;;;;;0.52;0.45;;;8.00;99.90;;;;;;5096793;28;20027;-86
2023/03/22 00:54:21;;;;;;;0.80;0.40;;;7.90;99.90;;;;;;5091717;28;20032;-86
2023/03/22 00:56:50;;;;;;;2.70;0.57;;;7.90;99.90;;;;;;5071038;28;20024;-87
2023/03/22 00:59:16;;;;;;;0.20;0.20;;;7.80;99.90;;;;;;5100345;28;20054;-86
2023/03/22 01:01:42;;;;;;;0.10;0.10;;;7.60;99.90;;;;;;5092494;28;20024;-88
2023/03/22 01:04:08;;;;;;;0.15;0.15;;;7.60;99.90;;;;;;5073742;28;20052;-88
2023/03/22 01:06:34;;;;;;;0.17;0.17;;;7.70;99.90;;;;;;5080107;28;20051;-87
2023/03/22 01:09:00;;;;;;;0.10;0.10;;;7.70;99.90;;;;;;5094626;28;20081;-87
2023/03/22 01:11:27;;;;;;;0.65;0.30;;;7.60;99.90;;;;;;5098068;28;20023;-88
2023/03/22 01:13:54;;;;;;;0.55;0.17;;;7.60;99.90;;;;;;5092263;28;20105;-87
2023/03/22 01:16:20;;;;;;;0.32;0.32;;;7.60;99.90;;;;;;5100002;27;20030;-88
2023/03/22 01:18:45;;;;;;;0.15;0.15;;;7.50;99.90;;;;;;5101760;28;20024;-86
2023/03/22 01:21:11;;;;;;;0.10;0.10;;;7.50;99.90;;;;;;5089854;28;20024;-86
2023/03/22 01:23:37;;;;;;;0.17;0.17;;;7.40;99.90;;;;;;5086648;28;20424;-87
2023/03/22 01:26:03;;;;;;;0.10;0.10;;;7.40;99.90;;;;;;5094401;28;20020;-87
2023/03/22 01:28:29;;;;;;;0.10;0.10;;;7.40;99.90;;;;;;5095556;28;20032;-87
2023/03/22 01:30:55;;;;;;;0.30;0.30;;;7.30;99.90;;;;;;5094932;28;20032;-87
2023/03/22 01:33:21;;;;;;;1.65;1.05;;;7.30;99.90;;;;;;5079441;28;20733;-88
2023/03/22 01:35:47;;;;;;;0.10;0.10;;;7.40;99.90;;;;;;5092563;28;20046;-88
2023/03/22 01:38:13;;;;;;;0.10;0.10;;;7.40;99.90;;;;;;5095300;28;20034;-86
2023/03/22 01:40:39;;;;;;;0.20;0.20;;;7.40;99.90;;;;;;5075153;28;20083;-87
2023/03/22 01:43:12;;;;;;;5.47;0.60;;;7.40;99.90;;;;;;5097284;28;20613;-86
2023/03/22 01:45:49;;;;;;;0.30;0.30;;;7.40;99.90;;;;;;5090073;28;20031;-86
2023/03/22 01:48:36;;;;;;;1.30;1.20;;;7.30;99.90;;;;;;5083730;28;20020;-87
2023/03/22 01:51:05;;;;;;;0.20;0.20;;;7.20;99.90;;;;;;5075323;28;20038;-87
2023/03/22 01:53:40;;;;;;;0.47;0.47;;;7.20;99.90;;;;;;5094621;28;20486;-86
2023/03/22 01:56:06;;;;;;;0.22;0.22;;;7.20;99.90;;;;;;5072094;28;20028;-87
2023/03/22 01:58:36;;;;;;;2.20;1.25;;;7.20;99.90;;;;;;5095120;28;20495;-84
2023/03/22 02:01:04;;;;;;;0.60;0.60;;;7.20;99.90;;;;;;5090532;28;20023;-85
2023/03/22 02:03:42;;;;;;;0.20;0.20;;;7.10;99.90;;;;;;5085628;28;20056;-85
2023/03/22 02:06:08;;;;;;;0.32;0.32;;;7.10;99.90;;;;;;5094115;28;20145;-87
2023/03/22 02:08:33;;;;;;;0.10;0.10;;;7.10;99.90;;;;;;5101748;28;20019;-86
2023/03/22 02:11:02;;;;;;;0.52;0.35;;;7.00;99.90;;;;;;5100090;28;20577;-87
2023/03/22 02:13:50;;;;;;;0.10;0.10;;;7.10;99.90;;;;;;5092227;28;20506;-87
2023/03/22 02:16:34;;;;;;;0.30;0.30;;;7.10;99.90;;;;;;5100540;28;20643;-86
2023/03/22 02:19:17;;;;;;;1.05;0.70;;;7.00;99.90;;;;;;5094197;28;20461;-88
2023/03/22 02:21:54;;;;;;;0.13;0.13;;;6.90;99.90;;;;;;5102974;28;20125;-87
2023/03/22 02:24:26;;;;;;;0.40;0.40;;;7.00;99.90;;;;;;5096440;28;20020;-88
2023/03/22 02:27:09;;;;;;;0.57;0.57;;;6.90;99.90;;;;;;5085034;28;20039;-88
2023/03/22 02:29:37;;;;;;;0.20;0.20;;;7.00;99.90;;;;;;5101984;28;20029;-87
2023/03/22 02:32:21;;;;;;;0.10;0.10;;;7.00;99.90;;;;;;5097409;28;20028;-87
2023/03/22 02:35:15;;;;;;;0.10;0.10;;;7.00;99.90;;;;;;5083786;28;20066;-85
2023/03/22 02:37:53;;;;;;;0.38;0.38;;;6.90;99.90;;;;;;5080913;28;20740;-85
2023/03/22 02:40:28;;;;;;;0.45;0.45;;;6.90;99.90;;;;;;5100654;28;20074;-85
2023/03/22 02:43:33;;;;;;;0.10;0.10;;;6.80;99.90;;;;;;5098181;28;20058;-87
2023/03/22 02:46:08;;;;;;;0.20;0.20;;;6.60;99.90;;;;;;5087992;28;20024;-86
2023/03/22 02:48:51;;;;;;;0.10;0.10;;;6.40;99.90;;;;;;5084316;28;20552;-88
2023/03/22 02:51:21;;;;;;;0.30;0.30;;;6.40;99.90;;;;;;5095166;28;20035;-87
2023/03/22 02:54:12;;;;;;;0.10;0.10;;;6.40;99.90;;;;;;5102457;28;20035;-91
2023/03/22 02:57:03;;;;;;;0.10;0.10;;;6.50;99.90;;;;;;5101520;28;20020;-87
2023/03/22 02:59:30;;;;;;;0.50;0.50;;;6.40;99.90;;;;;;5074910;28;20035;-87
2023/03/22 03:01:58;;;;;;;0.30;0.30;;;6.40;99.90;;;;;;5098753;28;20487;-87
2023/03/22 03:04:29;;;;;;;0.22;0.22;;;6.40;99.90;;;;;;5090908;28;20056;-84
2023/03/22 03:07:00;;;;;;;0.20;0.20;;;6.30;99.90;;;;;;5078941;28;20028;-87
2023/03/22 03:09:28;;;;;;;0.20;0.20;;;6.30;99.90;;;;;;5092427;28;20096;-86
2023/03/22 03:11:54;;;;;;;0.28;0.28;;;6.30;99.90;;;;;;5092134;28;20020;-86
2023/03/22 03:14:30;;;;;;;0.10;0.10;;;6.30;99.90;;;;;;5094296;28;20864;-87
2023/03/22 03:17:11;;;;;;;0.10;0.10;;;6.30;99.90;;;;;;5091688;28;20027;-87
2023/03/22 03:20:06;;;;;;;1.27;1.17;;;6.30;99.90;;;;;;5102193;28;20031;-85
2023/03/22 03:23:01;;;;;;;3.58;0.82;;;6.30;99.90;;;;;;5096721;28;20075;-87
2023/03/22 03:25:42;;;;;;;0.25;0.25;;;6.30;99.90;;;;;;5080163;28;20566;-86
2023/03/22 03:28:16;;;;;;;0.88;0.75;;;6.10;99.90;;;;;;5078558;28;20031;-85
2023/03/22 03:30:53;;;;;;;0.32;0.32;;;6.20;99.90;;;;;;5099246;28;20069;-87
2023/03/22 03:33:24;;;;;;;0.00;0.00;;;6.10;99.90;;;;;;5091764;28;20486;-87
2023/03/22 03:36:14;;;;;;;0.15;0.15;;;6.10;99.90;;;;;;5078112;28;20482;-86
2023/03/22 03:38:44;;;;;;;0.50;0.50;;;6.10;99.90;;;;;;5091675;28;20038;-87
2023/03/22 03:41:15;;;;;;;0.17;0.17;;;6.00;99.90;;;;;;5073345;28;20024;-86
2023/03/22 03:43:42;;;;;;;0.20;0.20;;;6.00;99.90;;;;;;5092883;28;20172;-86
2023/03/22 03:46:08;;;;;;;0.43;0.43;;;6.00;99.90;;;;;;5094234;28;20023;-86
2023/03/22 03:48:37;;;;;;;1.00;0.90;;;5.90;99.90;;;;;;5102237;28;20912;-87
2023/03/22 03:51:03;;;;;;;0.10;0.10;;;5.90;99.90;;;;;;5095863;28;20573;-87
2023/03/22 03:53:29;;;;;;;0.10;0.10;;;5.80;99.90;;;;;;5093542;28;20218;-88
2023/03/22 03:55:55;;;;;;;0.25;0.25;;;5.80;99.90;;;;;;5096471;28;20031;-87
2023/03/22 03:58:21;;;;;;;0.57;0.20;;;5.80;99.90;;;;;;5091343;28;20024;-86
2023/03/22 04:00:47;;;;;;;0.15;0.15;;;5.70;99.90;;;;;;5073788;28;20081;-87
2023/03/22 04:03:14;;;;;;;0.20;0.20;;;5.70;99.90;;;;;;5052280;28;1157648;-86
2023/03/22 04:05:40;;;;;;;0.55;0.55;;;5.70;99.90;;;;;;5095590;28;20051;-88
2023/03/22 04:08:06;;;;;;;0.20;0.20;;;5.70;99.90;;;;;;5091203;28;20031;-87
2023/03/22 04:10:31;;;;;;;0.10;0.10;;;5.60;99.90;;;;;;5081361;28;20529;-87
2023/03/22 04:12:57;;;;;;;0.10;0.10;;;5.60;99.90;;;;;;5098914;28;20057;-86
2023/03/22 04:15:23;;;;;;;0.30;0.30;;;5.70;99.90;;;;;;5084841;28;20044;-87
2023/03/22 04:17:49;;;;;;;0.30;0.30;;;5.70;99.90;;;;;;5093269;28;20024;-88
2023/03/22 04:20:16;;;;;;;0.10;0.10;;;5.70;99.90;;;;;;5100517;28;20041;-88
2023/03/22 04:22:43;;;;;;;0.10;0.10;;;5.60;99.90;;;;;;5099254;28;20028;-88
2023/03/22 04:25:10;;;;;;;;;;;5.60;99.90;;;;;;5080099;28;20031;-89
2023/03/22 04:27:41;;;;;;;0.15;0.15;;;5.60;99.90;;;;;;5096708;28;19955;-86
2023/03/22 04:30:09;;;;;;;3.38;1.55;;;5.60;99.90;;;;;;5100067;28;20061;-86
2023/03/22 04:32:36;;;;;;;0.22;0.20;;;5.50;99.90;;;;;;5096314;28;20024;-86
2023/03/22 04:35:03;;;;;;;0.10;0.10;;;5.50;99.90;;;;;;5086803;28;20133;-87
2023/03/22 04:37:30;;;;;;;0.52;0.52;;;5.50;99.90;;;;;;5079041;28;20069;-86
2023/03/22 04:39:56;;;;;;;0.47;0.20;;;5.40;99.90;;;;;;5089578;28;20024;-86
2023/03/22 04:42:23;;;;;;;0.03;0.03;;;5.50;99.90;;;;;;5097358;28;20038;-86
2023/03/22 04:44:48;;;;;;;0.20;0.20;;;5.40;99.90;;;;;;5089341;28;20902;-87
2023/03/22 04:47:14;;;;;;;1.38;1.35;;;5.50;99.90;;;;;;5103349;28;20031;-89
2023/03/22 04:49:40;;;;;;;0.35;0.35;;;5.50;99.90;;;;;;5099191;28;20027;-87
2023/03/22 04:52:07;;;;;;;0.10;0.10;;;5.40;99.90;;;;;;5100300;28;20019;-89
2023/03/22 04:54:32;;;;;;;0.30;0.30;;;5.40;99.90;;;;;;5087732;28;20230;-89
2023/03/22 04:56:59;;;;;;;0.20;0.20;;;5.40;99.90;;;;;;5089941;28;20817;-88
2023/03/22 04:59:25;;;;;;;0.10;0.10;;;5.40;99.90;;;;;;5071246;28;20448;-86
2023/03/22 05:01:51;;;;;;;0.10;0.10;;;5.40;99.90;;;;;;5096615;28;20032;-86
2023/03/22 05:04:18;;;;;;;0.77;0.77;;;5.50;99.90;;;;;;5096402;28;20047;-86
2023/03/22 05:06:44;;;;;;;0.10;0.10;;;5.50;99.90;;;;;;5076786;28;20028;-87
2023/03/22 05:09:10;;;;;;;0.15;0.15;;;5.40;99.90;;;;;;5093726;28;20053;-88
2023/03/22 05:11:36;;;;;;;0.10;0.10;;;5.40;99.90;;;;;;5098161;28;20119;-87
2023/03/22 05:14:02;;;;;;;0.38;0.38;;;5.50;99.90;;;;;;5068501;28;20040;-87
2023/03/22 05:16:28;;;;;;;1.17;1.08;;;5.50;99.90;;;;;;5091242;28;20151;-86
2023/03/22 05:18:54;;;;;;;0.15;0.15;;;5.50;99.90;;;;;;5096865;28;20106;-86
2023/03/22 05:21:27;;;;;;;0.15;0.15;;;5.50;99.90;;;;;;5079091;28;20722;-85
2023/03/22 05:23:55;;;;;;;0.17;0.17;;;5.40;99.90;;;;;;5096596;28;20063;-86
2023/03/22 05:26:23;;;;;;;1.20;0.65;;;5.40;99.90;;;;;;5096535;28;20075;-85
2023/03/22 05:28:50;;;;;;;0.85;0.85;;;5.40;99.90;;;;;;5095254;28;20402;-85
2023/03/22 05:31:16;;;;;;;0.25;0.25;;;5.30;99.90;;;;;;5091428;28;20032;-84
2023/03/22 05:33:45;;;;;;;0.43;0.22;;;5.40;99.90;;;;;;5100864;28;20048;-87
2023/03/22 05:36:11;;;;;;;0.28;0.28;;;5.50;99.90;;;;;;5093512;28;20047;-85
2023/03/22 05:38:37;;;;;;;0.63;0.28;;;5.40;99.90;;;;;;5092631;28;20036;-85
2023/03/22 05:41:03;;;;;;;0.10;0.10;;;5.50;99.90;;;;;;5072428;28;20020;-84
2023/03/22 05:43:28;;;;;;;0.28;0.28;;;5.50;99.90;;;;;;5091288;28;20028;-84
2023/03/22 05:45:54;;;;;;;0.98;0.38;;;5.50;99.90;;;;;;5091100;28;20394;-84
2023/03/22 05:48:20;;;;;;;0.08;0.08;;;5.50;99.90;;;;;;5086784;28;20051;-84
2023/03/22 05:50:46;;;;;;;0.10;0.10;;;5.60;99.90;;;;;;5096788;28;20099;-83
2023/03/22 05:53:11;;;;;;;0.35;0.35;;;5.60;99.90;;;;;;5092106;28;20063;-84
2023/03/22 05:55:37;;;;;;;0.13;0.13;;;5.50;99.90;;;;;;5099012;28;20033;-86
2023/03/22 05:58:03;;;;;;;0.80;0.63;;;5.50;99.90;;;;;;5083112;28;20031;-86
2023/03/22 06:00:33;;;;;;;0.30;0.30;;;5.40;99.90;;;;;;5095695;28;20028;-84
2023/03/22 06:03:04;;;;;;;4.65;0.63;;;5.30;99.90;;;;;;5088497;28;20028;-85
2023/03/22 06:05:31;;;;;;;0.65;0.65;;;5.20;99.90;;;;;;5098976;28;20101;-84
2023/03/22 06:07:58;;;;;;;0.20;0.20;;;5.40;99.90;;;;;;5082258;28;20024;-82
2023/03/22 06:10:25;;;;;;;0.85;0.70;;;5.80;99.90;;;;;;5091306;28;20111;-84
2023/03/22 06:12:51;;;;;;;0.20;0.20;;;6.10;99.90;;;;;;5072520;28;20470;-84
2023/03/22 06:15:17;;;;;;;0.10;0.10;;;6.20;99.90;;;;;;5096713;28;20031;-83
2023/03/22 06:17:43;;;;;;;0.00;0.00;;;5.80;99.90;;;;;;5076625;28;20409;-83
2023/03/22 06:20:12;;;;;;;0.40;0.40;;;5.60;99.90;;;;;;5082614;28;20027;-84
2023/03/22 06:22:38;;;;;;;0.35;0.20;;;5.50;99.90;;;;;;5103031;28;20024;-83
2023/03/22 06:25:06;;;;;;;0.40;0.40;;;5.60;99.90;;;;;;5102486;28;20020;-83
2023/03/22 06:27:32;;;;;;;0.25;0.25;;;5.50;99.90;;;;;;5107775;28;20016;-85
2023/03/22 06:29:58;;;;;;;0.75;0.75;;;5.50;99.90;;;;;;5106330;28;20516;-84
2023/03/22 06:32:25;;;;;;;0.40;0.40;;;5.60;99.90;;;;;;5083432;28;20067;-83
2023/03/22 06:34:54;;;;;;;;;;;5.70;99.90;;;;;;5104183;28;20059;-79
2023/03/22 06:37:20;;;;;;;0.10;0.10;;;5.80;99.90;;;;;;5099751;28;20318;-79
2023/03/22 06:39:46;;;;;;;1.45;0.70;;;5.80;99.90;;;;;;5082905;28;20025;-80
2023/03/22 06:42:12;;;;;;;0.80;0.80;;;6.00;99.90;;;;;;5087861;28;20043;-83
2023/03/22 06:44:41;;;;;;;0.98;0.65;;;6.10;99.90;;;;;;5080467;28;20109;-81
2023/03/22 06:47:07;;;;;;;0.10;0.10;;;6.20;99.90;;;;;;5099462;28;20027;-82
2023/03/22 06:49:32;;;;;;;0.10;0.10;;;6.40;99.90;;;;;;5077081;28;20030;-81
2023/03/22 06:51:58;;;;;;;0.55;0.55;;;6.50;99.90;;;;;;5098914;28;20631;-81
2023/03/22 06:54:24;;;;;;;0.32;0.32;;;6.90;99.90;;;;;;5093518;28;20785;-81
2023/03/22 06:56:49;;;;;;;0.45;0.45;;;7.30;99.90;;;;;;5102331;28;20026;-79
2023/03/22 06:59:15;;;;;;;0.47;0.40;;;7.50;99.90;;;;;;5087222;28;20425;-81
2023/03/22 07:01:41;;;;;;;0.10;0.10;;;7.40;99.90;;;;;;5104904;28;20019;-82
2023/03/22 07:04:06;;;;;;;0.35;0.35;;;7.90;99.90;;;;;;5104477;28;20556;-81
2023/03/22 07:06:33;;;;;;;0.47;0.47;;;8.20;99.90;;;;;;5103247;28;20543;-81
2023/03/22 07:08:58;;;;;;;0.30;0.30;;;8.70;99.90;;;;;;5085883;28;20023;-80
2023/03/22 07:11:25;;;;;;;0.20;0.20;;;10.20;99.90;;;;;;5083019;28;20306;-81
2023/03/22 07:13:53;;;;;;;0.40;0.40;;;10.20;99.90;;;;;;5100629;28;20062;-82
2023/03/22 07:16:19;;;;;;;0.98;0.98;;;9.70;99.90;;;;;;5085388;28;20080;-82
2023/03/22 07:18:45;;;;;;;0.20;0.20;;;10.90;99.90;;;;;;5100517;28;20081;-82
2023/03/22 07:21:11;;;;;;;0.10;0.10;;;10.80;99.30;;;;;;5078242;28;20750;-82
2023/03/22 07:23:37;;;;;;;0.27;0.27;;;10.20;99.70;;;;;;5102628;28;20055;-82
2023/03/22 07:26:03;;;;;;;0.00;0.00;;;9.70;99.90;;;;;;5092894;28;20063;-81
2023/03/22 07:28:44;;;;;;;0.38;0.38;;;9.70;99.90;;;;;;5100874;28;20024;-82
2023/03/22 07:31:11;;;;;;;0.45;0.45;;;9.90;99.90;;;;;;5085350;28;20150;-81
2023/03/22 07:33:37;;;;;;;0.28;0.28;;;10.00;99.40;;;;;;5104089;28;20038;-81
2023/03/22 07:36:05;;;;;;;0.55;0.55;;;9.50;99.90;;;;;;5101458;28;20027;-80
2023/03/22 07:38:31;;;;;;;0.08;0.08;;;9.90;99.90;;;;;;5104318;28;20024;-80
2023/03/22 07:40:56;;;;;;;0.50;0.50;;;10.30;99.30;;;;;;5083360;28;20024;-80
2023/03/22 07:43:23;;;;;;;0.25;0.25;;;10.80;98.70;;;;;;5101782;28;20067;-80
2023/03/22 07:45:50;;;;;;;0.10;0.10;;;10.70;98.50;;;;;;5086222;28;20031;-80
2023/03/22 07:48:16;;;;;;;;;;;11.40;97.10;;;;;;5085453;28;20061;-81
2023/03/22 07:50:42;;;;;;;0.22;0.22;;;11.40;97.50;;;;;;5098425;28;20069;-82
2023/03/22 07:53:08;;;;;;;0.00;0.00;;;11.30;97.60;;;;;;5104269;28;20554;-82
2023/03/22 07:55:35;;;;;;;0.45;0.45;;;10.70;97.90;;;;;;5085358;28;20119;-80
2023/03/22 07:58:01;;;;;;;0.28;0.28;;;10.80;98.00;;;;;;5101982;28;20023;-80
2023/03/22 08:00:27;;;;;;;0.47;0.47;;;10.80;97.80;;;;;;5099458;28;20063;-82
2023/03/22 08:02:53;;;;;;;0.28;0.28;;;11.70;95.50;;;;;;5083414;28;20028;-80
2023/03/22 08:05:21;;;;;;;0.63;0.63;;;11.30;95.80;;;;;;5090452;28;20031;-81
2023/03/22 08:07:47;;;;;;;4.20;1.70;;;11.60;95.70;;;;;;5102297;28;20125;-80
2023/03/22 08:10:13;;;;;;;0.00;0.00;;;12.50;94.70;;;;;;5104320;28;20032;-81
2023/03/22 08:12:39;;;;;;;0.00;0.00;;;12.50;93.80;;;;;;5099204;28;20261;-82
2023/03/22 08:15:05;;;;;;;1.10;0.40;;;12.30;94.40;;;;;;5101390;27;20047;-80
2023/03/22 08:17:31;;;;;;;0.17;0.17;;;12.00;94.60;;;;;;5075346;28;20019;-81
2023/03/22 08:19:56;;;;;;;10.90;1.23;;;12.00;94.30;;;;;;5083845;28;20073;-81
2023/03/22 08:22:28;;;;;;;0.10;0.10;;;12.40;94.20;;;;;;5102516;28;20866;-80
2023/03/22 08:24:55;;;;;;;0.10;0.10;;;12.70;94.50;;;;;;5101291;28;20441;-81
2023/03/22 08:27:21;;;;;;;0.60;0.55;;;13.00;93.10;;;;;;5091019;28;20028;-81
2023/03/22 08:29:47;;;;;;;0.30;0.30;;;13.40;93.00;;;;;;5099614;28;20081;-81
2023/03/22 08:32:14;;;;;;;0.00;0.00;;;15.00;90.90;;;;;;5103110;28;20019;-80
2023/03/22 08:34:41;;;;;;;0.60;0.60;;;16.20;89.50;;;;;;5080740;28;20963;-81
2023/03/22 08:37:08;;;;;;;0.55;0.52;;;15.50;88.00;;;;;;5096026;28;20075;-80
2023/03/22 08:39:34;;;;;;;;;;;16.10;85.40;;;;;;5077273;28;20028;-80
2023/03/22 08:42:00;;;;;;;1.38;0.45;;;16.30;85.20;;;;;;5102894;28;19912;-81
2023/03/22 08:44:26;;;;;;;0.20;0.20;;;16.80;84.20;;;;;;5093497;28;20039;-82
2023/03/22 08:46:52;;;;;;;0.00;0.00;;;16.00;82.30;;;;;;5082228;28;20062;-81
2023/03/22 08:49:18;;;;;;;0.10;0.10;;;15.10;85.80;;;;;;5102332;28;20442;-82
2023/03/22 08:51:43;;;;;;;0.10;0.10;;;14.90;89.10;;;;;;5067592;28;20036;-81
2023/03/22 08:54:10;;;;;;;0.30;0.30;;;15.00;87.50;;;;;;5088075;28;20043;-81
2023/03/22 08:56:36;;;;;;;0.40;0.40;;;15.50;84.90;;;;;;5093064;28;20027;-81
2023/03/22 08:59:07;;;;;;;0.28;0.22;;;15.00;87.00;;;;;;5093858;28;20031;-81
2023/03/22 09:01:34;;;;;;;0.30;0.30;;;14.80;87.80;;;;;;5102646;28;20027;-81
2023/03/22 09:04:00;;;;;;;;;;;15.00;89.10;;;;;;5102631;28;20091;-81
2023/03/22 09:06:26;;;;;;;0.43;0.43;;;15.20;88.20;;;;;;5092712;28;20395;-80
2023/03/22 09:08:52;;;;;;;0.00;0.00;;;15.50;86.60;;;;;;5093639;28;20041;-81
2023/03/22 09:11:18;;;;;;;0.00;0.00;;;16.40;85.00;;;;;;5095239;28;20016;-82
2023/03/22 09:13:44;;;;;;;0.10;0.10;;;16.20;88.00;;;;;;5097799;28;20181;-81
2023/03/22 09:16:10;;;;;;;0.00;0.00;;;16.10;87.00;;;;;;5089792;28;20102;-80
2023/03/22 09:18:37;;;;;;;0.10;0.10;;;15.50;86.70;;;;;;5099612;28;20111;-80
2023/03/22 09:21:06;;;;;;;0.10;0.10;;;15.80;88.40;;;;;;5100554;28;20035;-81
2023/03/22 09:23:32;;;;;;;0.55;0.55;;;16.70;87.90;;;;;;5101132;28;20106;-80
2023/03/22 09:26:04;;;;;;;0.45;0.45;;;16.40;87.80;;;;;;5100932;28;20024;-81
2023/03/22 09:28:30;;;;;;;0.20;0.20;;;16.70;86.60;;;;;;5102081;28;20015;-81
2023/03/22 09:31:05;;;;;;;0.30;0.30;;;17.90;82.00;;;;;;5092055;28;20081;-81
2023/03/22 09:33:31;;;;;;;0.20;0.20;;;19.70;79.00;;;;;;5073896;28;20027;-80
2023/03/22 09:35:57;;;;;;;0.00;0.00;;;20.30;74.90;;;;;;5093268;28;20023;-81
2023/03/22 09:38:24;;;;;;;0.53;0.53;;;19.70;74.10;;;;;;5094645;28;20035;-82
2023/03/22 09:40:59;;;;;;;;;;;19.80;75.60;;;;;;5101304;28;20073;-81
2023/03/22 09:43:27;;;;;;;0.10;0.10;;;20.10;73.40;;;;;;5097978;28;19915;-81
2023/03/22 09:45:55;;;;;;;0.20;0.20;;;21.00;71.60;;;;;;5093325;28;20024;-81
2023/03/22 09:48:27;;;;;;;0.00;0.00;;;21.90;69.60;;;;;;5097629;28;20035;-81
2023/03/22 09:50:54;;;;;;;0.38;0.38;;;20.00;72.20;;;;;;5089571;28;20024;-81
2023/03/22 09:53:23;;;;;;;0.10;0.10;;;19.30;74.60;;;;;;5090582;28;20122;-81
2023/03/22 09:55:55;;;;;;;0.63;0.40;;;18.50;74.80;;;;;;5090871;28;20079;-81
2023/03/22 09:58:43;;;;;;;0.20;0.20;;;18.10;76.10;;;;;;5097145;28;20034;-80
2023/03/22 10:01:34;;;;;;;0.43;0.43;;;17.80;76.60;;;;;;5077583;28;20457;-81
2023/03/22 10:04:09;;;;;;;0.00;0.00;;;17.40;76.40;;;;;;5084781;28;20131;-80
2023/03/22 10:06:35;;;;;;;0.40;0.40;;;17.50;77.00;;;;;;5093719;28;20029;-81
2023/03/22 10:09:13;;;;;;;0.27;0.27;;;17.30;80.80;;;;;;5092859;28;20028;-80
2023/03/22 10:11:50;;;;;;;0.35;0.35;;;17.30;81.70;;;;;;5064252;28;20677;-81
2023/03/22 10:14:28;;;;;;;5.68;1.10;;;16.90;80.80;;;;;;5074750;28;20054;-81
2023/03/22 10:16:56;;;;;;;0.77;0.75;;;17.00;80.60;;;;;;5068477;28;20514;-81
2023/03/22 10:19:37;;;;;;;0.10;0.10;;;16.70;81.50;;;;;;5092847;28;20132;-81
2023/03/22 10:22:04;;;;;;;0.25;0.25;;;17.40;83.70;;;;;;5095673;28;20031;-81
2023/03/22 10:24:37;;;;;;;0.28;0.28;;;17.50;80.20;;;;;;5095429;28;20370;-82
2023/03/22 10:27:06;;;;;;;0.13;0.13;;;17.80;80.30;;;;;;5099756;28;20032;-81
2023/03/22 10:29:42;;;;;;;2.50;0.82;;;17.50;82.70;;;;;;5101324;28;20068;-80
2023/03/22 10:32:16;;;;;;;0.20;0.20;;;17.50;83.10;;;;;;5093576;28;20896;-81
2023/03/22 10:34:43;;;;;;;0.65;0.43;;;17.40;87.10;;;;;;5099397;28;20452;-80
2023/03/22 10:37:19;;;;;;;1.20;1.15;;;17.80;83.70;;;;;;5096032;28;20489;-81
2023/03/22 10:39:51;;;;;;;0.13;0.13;;;17.80;80.60;;;;;;5076700;28;20537;-80
2023/03/22 10:42:20;;;;;;;0.32;0.32;;;17.50;80.30;;;;;;5100553;28;20114;-81
2023/03/22 10:45:14;;;;;;;0.70;0.70;;;17.40;79.70;;;;;;5091722;28;20028;-81
2023/03/22 10:47:47;;;;;;;0.25;0.20;;;17.60;83.70;;;;;;5069379;28;20044;-80
2023/03/22 10:50:28;;;;;;;0.00;0.00;;;18.00;77.40;;;;;;5092417;28;20035;-81
2023/03/22 10:53:05;;;;;;;0.45;0.45;;;18.40;75.20;;;;;;5104220;28;20032;-81
2023/03/22 10:55:31;;;;;;;0.10;0.10;;;17.90;75.60;;;;;;5103367;28;20565;-81
2023/03/22 10:58:18;;;;;;;0.00;0.00;;;18.10;82.30;;;;;;5094396;28;20027;-81
2023/03/22 11:00:48;;;;;;;0.10;0.10;;;17.60;80.40;;;;;;5096403;28;20024;-80
2023/03/22 11:03:50;;;;;;;0.15;0.15;;;17.70;82.20;;;;;;5088942;28;20056;-82
2023/03/22 11:06:26;;;;;;;0.10;0.10;;;17.70;79.90;;;;;;5017591;28;20029;-81
2023/03/22 11:09:15;;;;;;;0.10;0.10;;;17.70;78.40;;;;;;5083359;28;20499;-81
2023/03/22 11:11:53;;;;;;;0.00;0.00;;;17.80;74.70;;;;;;5102527;28;20020;-80
2023/03/22 11:14:26;;;;;;;0.30;0.30;;;18.20;77.40;;;;;;5099539;28;20067;-81
2023/03/22 11:16:57;;;;;;;0.60;0.45;;;17.70;74.30;;;;;;5092480;28;20114;-81
2023/03/22 11:19:37;;;;;;;0.10;0.10;;;17.90;77.70;;;;;;5104438;28;20031;-81
2023/03/22 11:22:34;;;;;;;0.17;0.17;;;17.70;74.90;;;;;;5085244;28;20453;-80
2023/03/22 11:25:01;;;;;;;0.13;0.13;;;17.40;72.60;;;;;;5090509;28;20044;-81
2023/03/22 11:27:28;;;;;;;0.00;0.00;;;17.60;74.80;;;;;;5101445;28;20024;-80
2023/03/22 11:29:58;;;;;;;1.98;0.60;;;17.70;73.20;;;;;;5094985;28;20028;-80
2023/03/22 11:32:34;;;;;;;0.00;0.00;;;17.80;73.40;;;;;;5094808;28;20019;-81
2023/03/22 11:35:15;;;;;;;0.20;0.20;;;17.70;71.40;;;;;;5088467;28;20042;-80
2023/03/22 11:37:50;;;;;;;0.00;0.00;;;17.60;70.30;;;;;;5087347;28;20024;-82
2023/03/22 11:40:20;;;;;;;1.98;0.63;;;17.50;72.60;;;;;;5098032;28;20028;-81
2023/03/22 11:42:47;;;;;;;0.73;0.73;;;17.50;71.90;;;;;;5091128;28;20024;-80
2023/03/22 11:45:17;;;;;;;0.15;0.15;;;17.50;71.60;;;;;;5091643;28;20024;-81
2023/03/22 11:47:43;;;;;;;0.10;0.10;;;17.50;65.90;;;;;;5102796;28;20031;-82
2023/03/22 11:50:24;;;;;;;1.58;0.52;;;17.50;71.10;;;;;;5093928;28;20512;-81
2023/03/22 11:52:50;;;;;;;0.17;0.17;;;17.60;68.20;;;;;;5096519;28;20055;-80
2023/03/22 11:55:16;;;;;;;0.00;0.00;;;17.60;70.50;;;;;;5101992;28;20165;-80
2023/03/22 11:57:42;;;;;;;0.45;0.43;;;17.70;65.20;;;;;;5101195;28;20293;-81
2023/03/22 12:00:20;;;;;;;0.10;0.10;;;17.90;66.20;;;;;;5084753;28;20386;-80
2023/03/22 12:02:55;;;;;;;0.00;0.00;;;17.80;63.60;;;;;;5083327;28;20078;-81
2023/03/22 12:05:27;;;;;;;0.60;0.35;;;17.70;63.10;;;;;;5104332;28;20042;-80
2023/03/22 12:08:07;;;;;;;0.00;0.00;;;17.80;63.40;;;;;;5103049;28;20070;-80
2023/03/22 12:10:40;;;;;;;0.47;0.47;;;17.90;65.70;;;;;;5102406;28;20020;-81
2023/03/22 12:13:35;;;;;;;4.85;1.13;;;18.20;68.40;;;;;;5099684;28;20031;-80
2023/03/22 12:16:03;;;;;;;0.00;0.00;;;18.30;62.60;;;;;;5090545;28;20031;-81
2023/03/22 12:18:50;;;;;;;0.20;0.20;;;18.50;65.70;;;;;;5097541;28;20016;-81
2023/03/22 12:21:15;;;;;;;;;;;18.80;63.20;;;;;;5096444;28;20053;-78
2023/03/22 12:23:41;;;;;;;0.03;0.03;;;18.80;64.30;;;;;;5075449;28;19908;-80
2023/03/22 12:26:16;;;;;;;3.92;0.65;;;19.00;61.20;;;;;;5092511;28;20119;-81
2023/03/22 12:28:55;;;;;;;0.10;0.10;;;19.20;60.70;;;;;;5084041;28;20043;-81
2023/03/22 12:31:31;;;;;;;1.38;0.90;;;19.10;61.60;;;;;;5070434;28;20027;-80
2023/03/22 12:34:00;;;;;;;0.00;0.00;;;19.20;59.30;;;;;;5079288;28;20088;-81
2023/03/22 12:36:44;;;;;;;0.08;0.08;;;19.30;60.80;;;;;;5100273;28;20353;-79
2023/03/22 12:39:34;;;;;;;0.08;0.08;;;19.70;63.70;;;;;;5079507;28;20032;-79
2023/03/22 12:42:20;;;;;;;0.00;0.00;;;19.90;62.80;;;;;;5093520;28;20028;-80
2023/03/22 12:44:47;;;;;;;0.45;0.30;;;19.90;61.00;;;;;;5093717;28;20054;-81
2023/03/22 12:47:24;;;;;;;0.00;0.00;;;20.00;60.20;;;;;;5093101;28;20495;-82
2023/03/22 12:49:56;;;;;;;0.17;0.17;;;19.70;60.30;;;;;;5080017;28;21014;-81
2023/03/22 12:52:29;;;;;;;0.00;0.00;;;19.60;60.90;;;;;;5087176;28;20063;-80
2023/03/22 12:54:58;;;;;;;0.88;0.10;;;19.70;59.60;;;;;;5078591;28;20088;-80
2023/03/22 12:57:24;;;;;;;0.00;0.00;;;19.70;60.80;;;;;;5081492;28;20647;-81
2023/03/22 12:59:54;;;;;;;0.55;0.20;;;19.70;61.50;;;;;;5087620;28;20135;-82
2023/03/22 13:02:34;;;;;;;0.15;0.15;;;19.50;61.60;;;;;;5093827;28;20165;-80
2023/03/22 13:05:05;;;;;;;0.10;0.10;;;19.60;59.30;;;;;;5078810;28;20058;-81
2023/03/22 13:07:46;;;;;;;0.05;0.05;;;19.50;59.50;;;;;;5091536;28;20522;-81
2023/03/22 13:10:35;;;;;;;0.20;0.20;;;19.50;59.10;;;;;;5093079;28;20031;-80